Time;durP1;ratioP1;P1;durP2;ratioP2;P2;SDS_P1;SDS_P2;PMS_P1;PMS_P2;Temp;Humidity;BMP_temperature;BMP_pressure;BME280_temperature;BME280_humidity;BME280_pressure;Samples;Min_cycle;Max_cycle;Signal;HPM_P1;HPM_P2
2022/05/09 00:02:11;;;;;;;7.47;2.08;;;11.70;60.80;;;;;;5092774;28;20103;-30
2022/05/09 00:04:37;;;;;;;5.30;1.65;;;11.70;61.00;;;;;;5092878;28;20110;-29
2022/05/09 00:07:04;;;;;;;5.05;1.88;;;11.60;61.00;;;;;;5092851;28;20024;-29
2022/05/09 00:09:30;;;;;;;6.93;1.73;;;11.60;61.20;;;;;;5092934;28;20109;-29
2022/05/09 00:11:56;;;;;;;3.47;1.60;;;11.60;61.20;;;;;;5092892;28;20032;-29
2022/05/09 00:14:21;;;;;;;6.53;1.58;;;11.60;61.20;;;;;;5092932;28;20475;-28
2022/05/09 00:16:50;;;;;;;5.93;2.00;;;11.60;61.30;;;;;;5093326;28;20434;-30
2022/05/09 00:19:17;;;;;;;7.22;1.83;;;11.60;61.30;;;;;;5093116;28;20361;-28
2022/05/09 00:21:44;;;;;;;7.20;1.80;;;11.60;61.40;;;;;;5092669;28;20073;-28
2022/05/09 00:24:14;;;;;;;9.32;2.00;;;11.60;61.40;;;;;;5092790;28;20028;-30
2022/05/09 00:26:41;;;;;;;5.78;1.73;;;11.60;61.60;;;;;;5093336;28;20040;-28
2022/05/09 00:29:09;;;;;;;5.78;1.73;;;11.60;61.60;;;;;;5092839;28;20101;-31
2022/05/09 00:31:34;;;;;;;7.97;1.80;;;11.60;61.70;;;;;;5092946;28;20556;-28
2022/05/09 00:34:00;;;;;;;6.55;2.00;;;11.50;61.80;;;;;;5092621;28;20032;-35
2022/05/09 00:36:25;;;;;;;5.75;1.75;;;11.50;61.70;;;;;;5092675;28;20077;-31
2022/05/09 00:38:51;;;;;;;5.40;1.70;;;11.50;61.80;;;;;;5092451;28;20024;-28
2022/05/09 00:44:07;;;;;;;5.68;1.80;;;11.40;62.00;;;;;;5092736;28;20042;-28
2022/05/09 00:46:33;;;;;;;7.32;1.95;;;11.40;62.10;;;;;;5092690;28;20028;-30
2022/05/09 00:49:07;;;;;;;5.25;1.73;;;11.40;62.10;;;;;;5092558;28;20032;-30
2022/05/09 00:51:35;;;;;;;8.23;1.98;;;11.40;62.30;;;;;;5092475;28;20027;-29
2022/05/09 00:54:04;;;;;;;6.85;1.90;;;11.30;62.30;;;;;;5092442;28;20024;-29
2022/05/09 00:56:37;;;;;;;7.10;1.90;;;11.30;62.50;;;;;;5092573;28;20089;-32
2022/05/09 00:59:09;;;;;;;6.78;2.20;;;11.30;62.50;;;;;;5092514;28;20072;-28
2022/05/09 01:01:36;;;;;;;6.18;1.85;;;11.30;62.60;;;;;;5092820;28;20101;-29
2022/05/09 01:04:08;;;;;;;7.28;1.90;;;11.30;62.60;;;;;;5096646;28;20043;-29
2022/05/09 01:06:34;;;;;;;6.60;1.80;;;11.30;62.80;;;;;;5096482;28;20144;-33
2022/05/09 01:09:00;;;;;;;6.35;2.00;;;11.20;62.80;;;;;;5096379;28;20103;-30
2022/05/09 01:11:28;;;;;;;7.75;1.80;;;11.30;62.80;;;;;;5096556;28;20024;-28
2022/05/09 01:14:01;;;;;;;3.70;1.80;;;11.20;62.80;;;;;;5096404;28;20073;-31
2022/05/09 01:16:27;;;;;;;6.80;1.95;;;11.20;63.00;;;;;;5096409;28;20042;-29
2022/05/09 01:18:56;;;;;;;5.57;1.98;;;11.20;63.10;;;;;;5096592;28;20036;-30
2022/05/09 01:21:36;;;;;;;4.57;1.73;;;11.20;63.10;;;;;;5096137;28;20023;-30
2022/05/09 01:24:04;;;;;;;5.20;1.75;;;11.20;63.30;;;;;;5096580;28;20052;-32
2022/05/09 01:30:12;;;;;;;5.18;1.75;;;11.10;63.30;;;;;;5095864;28;20070;-28
2022/05/09 01:32:50;;;;;;;10.93;2.17;;;11.10;63.30;;;;;;5095935;28;20034;-28
2022/05/09 01:35:38;;;;;;;6.22;1.70;;;11.10;63.30;;;;;;5096069;28;20476;-28
2022/05/09 01:38:11;;;;;;;4.90;1.58;;;11.10;63.40;;;;;;5096196;28;20020;-31
2022/05/09 01:40:37;;;;;;;5.68;1.80;;;11.10;63.30;;;;;;5095951;28;20511;-32
2022/05/09 01:43:02;;;;;;;6.80;2.00;;;11.10;63.30;;;;;;5095867;28;20050;-28
2022/05/09 01:45:28;;;;;;;6.43;2.10;;;11.10;64.00;;;;;;5095963;28;20412;-28
2022/05/09 01:50:38;;;;;;;11.90;2.13;;;11.10;63.60;;;;;;5095650;28;20117;-32
2022/05/09 01:53:04;;;;;;;4.00;1.80;;;11.00;63.60;;;;;;5095764;28;20044;-30
2022/05/09 01:55:29;;;;;;;6.00;1.90;;;11.00;63.70;;;;;;5095591;28;20043;-29
2022/05/09 01:57:55;;;;;;;7.85;2.30;;;11.00;63.70;;;;;;5095218;28;20445;-29
2022/05/09 02:00:20;;;;;;;6.88;2.00;;;11.00;63.70;;;;;;5095701;28;20020;-29
2022/05/09 02:02:46;;;;;;;9.68;2.05;;;11.00;63.80;;;;;;5095268;28;20024;-29
2022/05/09 02:05:12;;;;;;;9.48;2.20;;;11.00;63.90;;;;;;5095466;28;20023;-29
2022/05/09 02:07:38;;;;;;;7.75;2.20;;;11.00;63.90;;;;;;5095270;28;20480;-30
2022/05/09 02:10:04;;;;;;;6.32;1.85;;;10.90;63.90;;;;;;5094908;28;20046;-28
2022/05/09 02:12:30;;;;;;;6.88;2.00;;;10.90;64.00;;;;;;5095081;28;20032;-29
2022/05/09 02:14:56;;;;;;;6.03;2.17;;;10.90;64.00;;;;;;5093692;28;20088;-29
2022/05/09 02:17:21;;;;;;;8.50;2.28;;;10.90;64.00;;;;;;5095072;28;20059;-32
2022/05/09 02:19:47;;;;;;;6.18;2.05;;;10.90;64.10;;;;;;5095037;28;20032;-29
2022/05/09 02:22:14;;;;;;;7.68;2.15;;;10.90;64.10;;;;;;5095073;28;20034;-34
2022/05/09 02:24:40;;;;;;;7.30;1.95;;;10.90;64.20;;;;;;5095137;28;20032;-39
2022/05/09 02:27:07;;;;;;;5.20;1.80;;;10.90;64.20;;;;;;5095386;28;20051;-30
2022/05/09 02:29:33;;;;;;;7.03;2.10;;;10.90;64.30;;;;;;5094791;28;20117;-29
2022/05/09 02:32:01;;;;;;;7.38;1.90;;;10.80;64.30;;;;;;5093317;28;20470;-31
2022/05/09 02:34:26;;;;;;;5.53;1.92;;;10.80;64.40;;;;;;5094565;28;20032;-29
2022/05/09 02:36:52;;;;;;;4.30;1.67;;;10.80;64.40;;;;;;5094567;28;20036;-29
2022/05/09 02:39:17;;;;;;;7.05;1.92;;;10.80;64.50;;;;;;5094574;28;20526;-29
2022/05/09 02:41:43;;;;;;;7.57;2.30;;;10.80;64.50;;;;;;5094762;28;20460;-30
2022/05/09 02:44:09;;;;;;;6.47;2.13;;;10.70;64.50;;;;;;5094752;28;20024;-30
2022/05/09 02:46:35;;;;;;;5.00;2.00;;;10.70;64.50;;;;;;5094560;28;20107;-30
2022/05/09 02:49:02;;;;;;;7.45;2.10;;;10.70;64.60;;;;;;5094701;28;20086;-29
2022/05/09 02:51:29;;;;;;;7.22;2.13;;;10.70;64.60;;;;;;5094802;28;20039;-30
2022/05/09 02:53:56;;;;;;;4.95;2.25;;;10.70;64.70;;;;;;5094335;28;20024;-30
2022/05/09 02:56:22;;;;;;;9.52;2.60;;;10.70;64.80;;;;;;5094286;28;20047;-32
2022/05/09 02:58:48;;;;;;;8.85;2.08;;;10.70;64.80;;;;;;5093933;28;20036;-30
2022/05/09 03:01:13;;;;;;;7.18;2.47;;;10.70;64.80;;;;;;5094114;28;20364;-29
2022/05/09 03:06:23;;;;;;;8.25;2.17;;;10.60;64.80;;;;;;5093928;28;20039;-32
2022/05/09 03:08:49;;;;;;;7.32;2.30;;;10.70;64.90;;;;;;5093845;28;20024;-29
2022/05/09 03:11:14;;;;;;;6.63;2.13;;;10.60;64.80;;;;;;5093875;28;20065;-29
2022/05/09 03:13:40;;;;;;;6.53;2.05;;;10.60;64.90;;;;;;5093898;28;20024;-29
2022/05/09 03:16:06;;;;;;;6.03;1.90;;;10.60;64.90;;;;;;5094071;28;20016;-29
2022/05/09 03:18:32;;;;;;;5.80;2.10;;;10.60;65.00;;;;;;5093827;28;20047;-31
2022/05/09 03:20:58;;;;;;;8.52;2.40;;;10.60;65.10;;;;;;5093792;28;20024;-29
2022/05/09 03:23:23;;;;;;;6.22;2.00;;;10.50;65.10;;;;;;5093660;28;20031;-31
2022/05/09 03:25:49;;;;;;;9.75;2.65;;;10.50;65.20;;;;;;5093212;28;20024;-28
2022/05/09 03:28:21;;;;;;;5.72;2.08;;;10.50;65.20;;;;;;5093818;28;20024;-31
2022/05/09 03:30:48;;;;;;;11.25;2.60;;;10.50;65.20;;;;;;5093784;28;20487;-31
2022/05/09 03:33:15;;;;;;;7.15;2.45;;;10.50;65.30;;;;;;5093514;28;20024;-28
2022/05/09 03:35:41;;;;;;;7.05;2.10;;;10.50;65.30;;;;;;5093757;28;20031;-29
2022/05/09 03:38:07;;;;;;;6.75;2.60;;;10.50;65.40;;;;;;5093570;28;20077;-30
2022/05/09 03:40:34;;;;;;;5.00;2.05;;;10.40;65.40;;;;;;5093500;28;20024;-30
2022/05/09 03:43:00;;;;;;;6.75;2.38;;;10.40;65.50;;;;;;5093584;28;20353;-28
2022/05/09 03:45:26;;;;;;;5.70;2.15;;;10.40;65.50;;;;;;5093722;28;20077;-28
2022/05/09 03:47:52;;;;;;;5.95;1.98;;;10.40;65.80;;;;;;5093416;28;20387;-28
2022/05/09 03:50:18;;;;;;;11.13;2.60;;;10.40;65.50;;;;;;5093416;28;20077;-34
2022/05/09 03:52:44;;;;;;;6.90;2.28;;;10.40;65.60;;;;;;5093328;28;20027;-35
2022/05/09 03:55:10;;;;;;;5.85;2.30;;;10.40;65.60;;;;;;5093133;28;20382;-29
2022/05/09 03:57:53;;;;;;;7.75;2.45;;;10.40;65.70;;;;;;5092785;28;20032;-31
2022/05/09 04:00:23;;;;;;;7.55;2.00;;;10.40;65.80;;;;;;5093084;28;20027;-34
2022/05/09 04:02:48;;;;;;;9.48;2.50;;;10.40;65.70;;;;;;5093277;28;20020;-29
2022/05/09 04:05:17;;;;;;;8.40;2.30;;;10.40;65.70;;;;;;5093209;28;20077;-28
2022/05/09 04:07:51;;;;;;;7.07;2.58;;;10.40;65.70;;;;;;5093441;28;20490;-29
2022/05/09 04:10:20;;;;;;;7.55;2.55;;;10.40;65.80;;;;;;5093074;28;20032;-29
2022/05/09 04:12:46;;;;;;;9.18;2.85;;;10.40;65.70;;;;;;5093247;28;20465;-29
2022/05/09 04:17:56;;;;;;;6.95;2.25;;;10.40;65.70;;;;;;5092906;28;20360;-29
2022/05/09 04:20:23;;;;;;;4.53;2.30;;;10.40;65.70;;;;;;5093028;28;20032;-28
2022/05/09 04:22:51;;;;;;;6.05;2.47;;;10.40;65.80;;;;;;5092671;28;20020;-31
2022/05/09 04:25:17;;;;;;;6.28;2.28;;;10.40;65.80;;;;;;5092899;28;20499;-27
2022/05/09 04:31:05;;;;;;;7.68;2.25;;;10.40;65.80;;;;;;5092665;28;20556;-27
2022/05/09 04:33:30;;;;;;;5.43;2.08;;;10.40;65.60;;;;;;5092670;28;20012;-27
2022/05/09 04:35:58;;;;;;;6.50;2.33;;;10.50;65.60;;;;;;5092768;28;20012;-28
2022/05/09 04:38:24;;;;;;;7.10;2.30;;;10.50;65.50;;;;;;5092344;28;20329;-27
2022/05/09 04:40:54;;;;;;;8.40;2.42;;;10.50;65.50;;;;;;5093064;28;20466;-33
2022/05/09 04:43:22;;;;;;;5.65;2.65;;;10.60;65.50;;;;;;5092549;28;20034;-28
2022/05/09 04:45:48;;;;;;;5.20;1.88;;;10.60;65.50;;;;;;5092901;28;20380;-29
2022/05/09 04:48:18;;;;;;;7.28;2.15;;;10.70;65.40;;;;;;5092765;28;20446;-35
2022/05/09 04:50:44;;;;;;;6.18;2.20;;;10.60;65.40;;;;;;5092485;28;20028;-31
2022/05/09 04:53:10;;;;;;;5.45;2.13;;;10.70;65.40;;;;;;5092751;28;20020;-28
2022/05/09 04:55:35;;;;;;;9.25;2.40;;;10.70;65.40;;;;;;5092675;28;20115;-31
2022/05/09 04:58:03;;;;;;;8.50;2.17;;;10.70;65.40;;;;;;5092288;28;20052;-29
2022/05/09 05:00:29;;;;;;;6.18;2.40;;;10.70;65.40;;;;;;5092675;28;20145;-28
2022/05/09 05:02:56;;;;;;;9.32;2.67;;;10.80;65.40;;;;;;5092384;28;20024;-33
2022/05/09 05:05:23;;;;;;;5.22;1.90;;;10.80;65.30;;;;;;5092301;28;20107;-31
2022/05/09 05:07:49;;;;;;;6.28;2.20;;;10.80;65.30;;;;;;5092677;28;20511;-29
2022/05/09 05:10:16;;;;;;;5.57;2.17;;;10.90;65.30;;;;;;5092402;28;20115;-27
2022/05/09 05:12:42;;;;;;;7.72;2.53;;;10.90;65.20;;;;;;5092600;28;20020;-28
2022/05/09 05:15:08;;;;;;;6.13;2.35;;;10.90;65.10;;;;;;5092487;28;20020;-28
2022/05/09 05:17:36;;;;;;;6.35;2.60;;;11.00;65.10;;;;;;5092461;28;20016;-28
2022/05/09 05:20:04;;;;;;;5.93;2.28;;;11.00;65.00;;;;;;5092132;28;20118;-31
2022/05/09 05:22:34;;;;;;;9.25;2.67;;;11.10;65.00;;;;;;5092408;28;20513;-28
2022/05/09 05:24:59;;;;;;;7.25;2.28;;;11.10;65.00;;;;;;5092144;28;20361;-28
2022/05/09 05:27:25;;;;;;;6.28;2.40;;;11.10;64.90;;;;;;5092294;28;20027;-30
2022/05/09 05:29:53;;;;;;;6.65;2.42;;;11.20;65.00;;;;;;5092265;28;20108;-31
2022/05/09 05:32:22;;;;;;;6.93;2.17;;;11.20;64.90;;;;;;5092457;28;20044;-29
2022/05/09 05:34:49;;;;;;;9.90;2.50;;;11.20;64.90;;;;;;5092210;28;20057;-29
2022/05/09 05:37:16;;;;;;;7.22;2.65;;;11.20;65.40;;;;;;5092061;28;20110;-28
2022/05/09 05:39:43;;;;;;;11.73;2.50;;;11.30;64.80;;;;;;5092227;28;20031;-28
2022/05/09 05:42:09;;;;;;;6.68;2.50;;;11.30;64.80;;;;;;5092112;28;20024;-30
2022/05/09 05:44:37;;;;;;;5.88;2.25;;;11.30;64.70;;;;;;5092279;28;20016;-29
2022/05/09 05:47:11;;;;;;;6.05;2.10;;;11.40;64.70;;;;;;5092004;28;20028;-30
2022/05/09 05:49:38;;;;;;;6.97;2.13;;;11.40;64.60;;;;;;5094912;28;20118;-31
2022/05/09 05:52:04;;;;;;;5.50;2.47;;;11.50;64.60;;;;;;5095633;28;20020;-28
2022/05/09 05:54:33;;;;;;;7.05;2.22;;;11.50;64.40;;;;;;5095658;28;20436;-28
2022/05/09 05:56:59;;;;;;;5.53;2.38;;;11.50;64.40;;;;;;5095820;28;20116;-27
2022/05/09 05:59:25;;;;;;;8.98;2.45;;;11.60;64.40;;;;;;5095835;28;20016;-29
2022/05/09 06:01:52;;;;;;;6.97;2.40;;;11.70;64.30;;;;;;5095772;28;20070;-31
2022/05/09 06:04:18;;;;;;;9.43;2.47;;;11.70;64.20;;;;;;5095427;28;20028;-28
2022/05/09 06:06:44;;;;;;;7.03;2.63;;;11.70;64.20;;;;;;5095637;28;20024;-31
2022/05/09 06:09:11;;;;;;;7.80;2.40;;;11.80;64.20;;;;;;5094434;28;20032;-31
2022/05/09 06:11:39;;;;;;;6.45;2.40;;;11.80;64.10;;;;;;5095670;28;20091;-29
2022/05/09 06:14:09;;;;;;;8.23;2.40;;;11.80;64.00;;;;;;5095323;28;20084;-30
2022/05/09 06:16:36;;;;;;;6.80;2.53;;;11.90;64.00;;;;;;5095478;28;20066;-32
2022/05/09 06:19:03;;;;;;;7.45;2.38;;;11.90;64.00;;;;;;5095343;28;20073;-30
2022/05/09 06:21:29;;;;;;;5.55;2.25;;;11.90;63.90;;;;;;5095201;28;20016;-29
2022/05/09 06:23:54;;;;;;;5.30;2.30;;;12.00;63.80;;;;;;5095291;28;20126;-32
2022/05/09 06:26:22;;;;;;;7.07;2.75;;;12.10;63.80;;;;;;5094852;28;20018;-30
2022/05/09 06:28:48;;;;;;;7.88;2.35;;;12.10;63.70;;;;;;5095069;28;20013;-29
2022/05/09 06:31:13;;;;;;;5.57;2.30;;;12.20;63.70;;;;;;5094716;28;20031;-28
2022/05/09 06:33:39;;;;;;;6.45;2.47;;;12.20;63.60;;;;;;5094750;28;20073;-29
2022/05/09 06:36:05;;;;;;;4.03;2.20;;;12.30;63.50;;;;;;5094829;28;20019;-35
2022/05/09 06:38:33;;;;;;;6.53;2.42;;;12.30;63.40;;;;;;5094913;28;20381;-34
2022/05/09 06:41:01;;;;;;;7.13;2.13;;;12.40;63.40;;;;;;5094967;28;20425;-28
2022/05/09 06:43:27;;;;;;;6.18;2.10;;;12.50;63.30;;;;;;5094927;28;20027;-29
2022/05/09 06:45:53;;;;;;;9.50;2.42;;;12.50;63.10;;;;;;5094741;28;20070;-28
2022/05/09 06:48:19;;;;;;;6.43;2.38;;;12.60;63.00;;;;;;5094719;28;20020;-29
2022/05/09 06:50:45;;;;;;;4.72;2.15;;;12.70;63.00;;;;;;5094416;28;20506;-29
2022/05/09 06:53:12;;;;;;;7.65;2.33;;;12.80;62.90;;;;;;5094736;28;20020;-30
2022/05/09 06:55:38;;;;;;;5.75;2.08;;;12.80;62.80;;;;;;5094562;28;20372;-28
2022/05/09 06:58:08;;;;;;;6.18;2.03;;;12.90;62.70;;;;;;5094307;28;20044;-28
2022/05/09 07:00:34;;;;;;;6.93;2.20;;;13.00;62.60;;;;;;5093860;28;20028;-31
2022/05/09 07:02:59;;;;;;;7.95;2.50;;;13.00;62.40;;;;;;5094526;28;20360;-30
2022/05/09 07:05:25;;;;;;;8.15;2.22;;;13.10;62.30;;;;;;5092929;28;20020;-33
2022/05/09 07:07:51;;;;;;;7.97;2.60;;;13.10;62.10;;;;;;5094388;28;20490;-31
2022/05/09 07:10:18;;;;;;;4.68;2.20;;;13.20;62.10;;;;;;5094586;28;20154;-30
2022/05/09 07:12:46;;;;;;;7.57;2.53;;;13.30;62.00;;;;;;5094608;28;20379;-30
2022/05/09 07:15:14;;;;;;;7.97;2.38;;;13.30;61.90;;;;;;5094273;28;20016;-31
2022/05/09 07:17:40;;;;;;;7.22;2.13;;;13.40;61.80;;;;;;5094203;28;20028;-32
2022/05/09 07:20:07;;;;;;;8.27;2.33;;;13.40;61.80;;;;;;5094525;28;20050;-29
2022/05/09 07:22:33;;;;;;;7.10;2.50;;;13.50;61.70;;;;;;5094080;28;20036;-31
2022/05/09 07:24:58;;;;;;;6.88;2.58;;;13.50;61.60;;;;;;5094019;28;20059;-34
2022/05/09 07:27:24;;;;;;;7.65;2.97;;;13.60;61.50;;;;;;5094111;28;20142;-29
2022/05/09 07:29:50;;;;;;;9.13;2.67;;;13.70;61.40;;;;;;5093770;28;20028;-30
2022/05/09 07:32:15;;;;;;;7.80;2.72;;;13.80;61.30;;;;;;5093874;28;20357;-30
2022/05/09 07:34:41;;;;;;;5.80;2.35;;;13.80;61.10;;;;;;5093771;28;20046;-31
2022/05/09 07:37:06;;;;;;;6.50;2.50;;;13.90;61.10;;;;;;5092499;28;20031;-29
2022/05/09 07:39:32;;;;;;;11.25;2.78;;;14.00;61.00;;;;;;5094053;28;20031;-31
2022/05/09 07:41:58;;;;;;;4.35;2.10;;;14.10;60.90;;;;;;5093740;28;20099;-35
2022/05/09 07:44:23;;;;;;;7.97;2.35;;;14.10;60.80;;;;;;5093676;28;20108;-34
2022/05/09 07:46:49;;;;;;;6.07;2.30;;;14.20;60.70;;;;;;5093851;28;20432;-32
2022/05/09 07:49:15;;;;;;;6.80;2.47;;;14.30;60.50;;;;;;5093480;28;20024;-30
2022/05/09 07:51:41;;;;;;;7.38;2.70;;;14.30;60.40;;;;;;5093510;28;20089;-32
2022/05/09 07:54:08;;;;;;;6.45;2.47;;;14.40;60.20;;;;;;5093490;28;20028;-28
2022/05/09 07:56:33;;;;;;;5.95;2.47;;;14.50;60.20;;;;;;5093419;28;20140;-28
2022/05/09 07:58:59;;;;;;;7.75;2.88;;;14.50;60.00;;;;;;5093082;28;20071;-31
2022/05/09 08:01:25;;;;;;;6.63;2.63;;;14.60;59.90;;;;;;5093503;28;20024;-34
2022/05/09 08:03:51;;;;;;;5.82;2.58;;;14.70;60.40;;;;;;5091943;28;20039;-36
2022/05/09 08:06:16;;;;;;;7.18;2.97;;;14.70;59.70;;;;;;5093315;28;20020;-28
2022/05/09 08:08:43;;;;;;;8.13;2.80;;;14.80;59.60;;;;;;5093179;28;20543;-30
2022/05/09 08:11:11;;;;;;;8.73;2.65;;;14.90;59.40;;;;;;5092948;28;20028;-30
2022/05/09 08:13:39;;;;;;;4.72;2.33;;;15.00;59.30;;;;;;5093214;28;20031;-30
2022/05/09 08:16:05;;;;;;;7.00;2.80;;;15.00;59.10;;;;;;5093003;28;20028;-33
2022/05/09 08:18:32;;;;;;;4.63;2.50;;;15.10;59.00;;;;;;5093090;28;20089;-28
2022/05/09 08:20:59;;;;;;;8.70;2.60;;;15.20;58.90;;;;;;5092829;28;20031;-32
2022/05/09 08:23:27;;;;;;;5.35;2.80;;;15.30;58.90;;;;;;5092939;28;20028;-35
2022/05/09 08:25:55;;;;;;;7.50;2.50;;;15.30;58.60;;;;;;5093017;28;20046;-32
2022/05/09 08:28:21;;;;;;;7.53;2.75;;;15.40;58.50;;;;;;5092816;28;20020;-30
2022/05/09 08:30:49;;;;;;;7.07;2.60;;;15.60;58.50;;;;;;5091486;28;20028;-29
2022/05/09 08:33:18;;;;;;;7.18;2.88;;;15.70;58.30;;;;;;5092933;28;20024;-29
2022/05/09 08:35:45;;;;;;;5.97;2.22;;;15.80;58.20;;;;;;5093058;28;20035;-29
2022/05/09 08:38:11;;;;;;;5.75;2.50;;;15.80;57.90;;;;;;5092735;28;20099;-33
2022/05/09 08:41:12;;;;;;;9.40;2.53;;;15.90;57.80;;;;;;5092841;28;20028;-28
2022/05/09 08:43:59;;;;;;;5.15;2.60;;;16.10;57.70;;;;;;5092942;28;20089;-29
2022/05/09 08:46:45;;;;;;;8.95;2.60;;;16.10;57.40;;;;;;5092717;28;20515;-32
2022/05/09 08:49:20;;;;;;;5.93;2.20;;;16.30;57.10;;;;;;5092627;28;20020;-33
2022/05/09 08:51:45;;;;;;;6.47;2.53;;;16.30;57.50;;;;;;5092790;28;20028;-30
2022/05/09 08:54:19;;;;;;;7.65;2.75;;;16.50;56.70;;;;;;5092808;28;20016;-29
2022/05/09 08:56:45;;;;;;;;;;;16.60;56.50;;;;;;5075028;28;20028;-32
2022/05/09 08:59:18;;;;;;;6.78;3.13;;;16.60;56.30;;;;;;5091226;28;19904;-29
2022/05/09 09:02:03;;;;;;;6.10;2.70;;;16.70;56.10;;;;;;5092923;28;20070;-29
2022/05/09 09:04:34;;;;;;;7.55;2.50;;;16.80;55.80;;;;;;5092558;28;20055;-27
2022/05/09 09:07:09;;;;;;;4.20;2.50;;;16.90;55.50;;;;;;5092560;28;20027;-29
2022/05/09 09:10:01;;;;;;;9.15;2.80;;;17.00;55.60;;;;;;5092654;28;20136;-28
2022/05/09 09:12:49;;;;;;;10.88;2.67;;;17.10;55.00;;;;;;5092353;28;20020;-31
2022/05/09 09:15:37;;;;;;;8.10;2.78;;;17.20;54.40;;;;;;5091125;28;20020;-31
2022/05/09 09:18:26;;;;;;;5.80;2.42;;;17.30;54.00;;;;;;5092875;28;20024;-29
2022/05/09 09:21:06;;;;;;;4.57;2.30;;;17.30;53.40;;;;;;5092269;28;20069;-29
2022/05/09 09:23:44;;;;;;;5.03;1.90;;;17.40;53.10;;;;;;5094183;28;20025;-31
2022/05/09 09:26:20;;;;;;;5.97;2.15;;;17.40;52.70;;;;;;5096379;28;20055;-30
2022/05/09 09:28:59;;;;;;;3.63;1.63;;;17.50;52.40;;;;;;5096326;28;20028;-30
2022/05/09 09:31:36;;;;;;;4.18;2.00;;;17.60;52.20;;;;;;5096553;28;20024;-29
2022/05/09 09:34:17;;;;;;;8.48;2.40;;;17.70;51.90;;;;;;5096407;28;20083;-28
2022/05/09 09:36:50;;;;;;;4.68;2.00;;;17.70;51.70;;;;;;5096296;28;20438;-34
2022/05/09 09:39:19;;;;;;;4.82;2.20;;;17.80;51.80;;;;;;5096255;28;20020;-31
2022/05/09 09:41:46;;;;;;;4.53;1.90;;;17.90;51.60;;;;;;5096108;28;20100;-30
2022/05/09 09:44:21;;;;;;;7.32;1.85;;;17.90;51.50;;;;;;5096180;28;20024;-30
2022/05/09 09:47:21;;;;;;;4.03;1.70;;;18.00;51.20;;;;;;5095899;28;20099;-33
2022/05/09 09:49:49;;;;;;;4.30;1.38;;;18.10;50.90;;;;;;5095630;28;20060;-28
2022/05/09 09:52:25;;;;;;;2.78;1.70;;;18.10;50.40;;;;;;5096042;28;20047;-28
2022/05/09 09:54:57;;;;;;;7.03;2.08;;;18.20;50.30;;;;;;5095794;28;20016;-32
2022/05/09 09:57:28;;;;;;;3.45;1.50;;;18.20;49.90;;;;;;5095626;28;20048;-31
2022/05/09 09:59:55;;;;;;;2.63;1.38;;;18.20;49.60;;;;;;5095774;28;20027;-30
2022/05/09 10:02:30;;;;;;;3.08;1.58;;;18.30;49.70;;;;;;5095882;28;20028;-29
2022/05/09 10:04:57;;;;;;;4.72;1.90;;;18.40;49.60;;;;;;5095523;28;20024;-28
2022/05/09 10:07:30;;;;;;;3.33;1.50;;;18.40;49.50;;;;;;5095457;28;20035;-34
2022/05/09 10:10:14;;;;;;;2.80;1.50;;;18.50;49.20;;;;;;5095626;28;20438;-30
2022/05/09 10:12:47;;;;;;;6.25;2.13;;;18.50;49.10;;;;;;5095407;28;20089;-30
2022/05/09 10:15:34;;;;;;;3.97;1.80;;;18.60;49.30;;;;;;5095420;28;20104;-29
2022/05/09 10:18:22;;;;;;;3.97;1.90;;;18.70;49.10;;;;;;5095654;28;20020;-30
2022/05/09 10:20:52;;;;;;;5.35;2.03;;;18.80;48.90;;;;;;5095240;28;20032;-31
2022/05/09 10:26:20;;;;;;;5.25;2.40;;;18.90;48.80;;;;;;5095509;28;20505;-31
2022/05/09 10:28:53;;;;;;;3.60;1.65;;;19.00;48.40;;;;;;5095217;28;20020;-29
2022/05/09 10:31:25;;;;;;;4.38;1.90;;;19.00;48.60;;;;;;5094953;28;20030;-31
2022/05/09 10:34:26;;;;;;;4.47;1.90;;;19.10;48.80;;;;;;5094943;28;20020;-32
2022/05/09 10:37:05;;;;;;;4.00;1.95;;;19.20;48.70;;;;;;5064288;28;20031;-30
2022/05/09 10:39:36;;;;;;;6.22;1.90;;;19.20;48.70;;;;;;5095126;28;20024;-31
2022/05/09 10:42:09;;;;;;;6.10;2.13;;;19.30;48.70;;;;;;5094961;28;20020;-33
2022/05/09 10:44:54;;;;;;;4.22;1.80;;;19.40;48.90;;;;;;5094904;28;20032;-29
2022/05/09 10:47:30;;;;;;;3.85;1.80;;;19.50;48.70;;;;;;5093729;28;20020;-36
2022/05/09 10:50:21;;;;;;;6.78;1.63;;;19.60;48.70;;;;;;5094866;28;20113;-32
2022/05/09 10:53:06;;;;;;;6.68;2.30;;;19.70;48.90;;;;;;5094672;28;20020;-30
2022/05/09 10:55:35;;;;;;;6.35;2.25;;;19.80;49.10;;;;;;5094557;28;20020;-31
2022/05/09 10:58:12;;;;;;;5.20;2.30;;;19.90;48.90;;;;;;5094446;28;20126;-30
2022/05/09 11:00:45;;;;;;;4.10;2.03;;;19.90;48.60;;;;;;5094613;28;20103;-30
2022/05/09 11:03:34;;;;;;;3.53;1.95;;;19.90;48.50;;;;;;5094397;28;20472;-30
2022/05/09 11:06:02;;;;;;;4.32;1.80;;;20.00;48.40;;;;;;5094597;28;20028;-31
2022/05/09 11:08:56;;;;;;;6.72;2.15;;;20.10;48.20;;;;;;5094383;28;20485;-31
2022/05/09 11:11:32;;;;;;;3.88;1.70;;;20.10;47.90;;;;;;5094426;28;20055;-40
2022/05/09 11:14:11;;;;;;;3.78;1.73;;;20.10;47.80;;;;;;5094297;28;20085;-35
2022/05/09 11:16:55;;;;;;;5.35;1.60;;;20.20;47.60;;;;;;5094323;28;20035;-30
2022/05/09 11:19:38;;;;;;;3.78;1.85;;;20.20;47.80;;;;;;5094320;28;20059;-34
2022/05/09 11:22:12;;;;;;;;;;;20.30;48.10;;;;;;5094488;28;20028;-32
2022/05/09 11:25:04;;;;;;;4.22;1.75;;;20.40;47.80;;;;;;5094240;28;19904;-31
2022/05/09 11:27:43;;;;;;;3.75;1.70;;;20.40;47.60;;;;;;5093961;28;20016;-33
2022/05/09 11:30:46;;;;;;;6.35;2.15;;;20.50;47.20;;;;;;5094067;28;20020;-33
2022/05/09 11:33:41;;;;;;;4.25;1.92;;;20.50;46.80;;;;;;5093610;28;20031;-31
2022/05/09 11:36:49;;;;;;;3.67;1.83;;;20.60;46.70;;;;;;5093631;28;20081;-29
2022/05/09 11:39:27;;;;;;;5.78;2.30;;;20.60;46.10;;;;;;5093907;28;20105;-30
2022/05/09 11:43:27;;;;;;;4.82;1.80;;;20.70;45.90;;;;;;5075475;28;20020;-33
2022/05/09 11:44:55;;;;;;;4.53;1.70;;;20.70;45.90;;;;;;5093643;28;20032;-30
2022/05/09 11:47:36;;;;;;;3.80;1.50;;;20.70;45.90;;;;;;5093185;28;20039;-33
2022/05/09 11:50:31;;;;;;;3.22;1.60;;;20.80;45.70;;;;;;5093737;28;20493;-28
2022/05/09 11:52:59;;;;;;;3.15;1.40;;;20.90;45.90;;;;;;5052173;28;20097;-29
2022/05/09 11:55:25;;;;;;;4.07;1.75;;;21.00;45.90;;;;;;5093788;28;20024;-30
2022/05/09 11:57:55;;;;;;;2.50;1.48;;;21.10;45.90;;;;;;5093338;28;20044;-32
2022/05/09 12:00:43;;;;;;;4.95;1.80;;;21.30;45.70;;;;;;5092321;28;20445;-30
2022/05/09 12:03:11;;;;;;;4.63;1.48;;;21.40;45.80;;;;;;5093638;28;20035;-31
2022/05/09 12:05:38;;;;;;;3.35;1.35;;;21.60;45.80;;;;;;5093530;28;20032;-31
2022/05/09 12:08:05;;;;;;;3.72;1.40;;;21.70;46.00;;;;;;5093557;28;20444;-32
2022/05/09 12:10:38;;;;;;;4.40;1.70;;;21.80;45.50;;;;;;5093185;28;20016;-34
2022/05/09 12:13:07;;;;;;;3.80;1.73;;;21.90;45.10;;;;;;5092440;28;20028;-32
2022/05/09 12:15:33;;;;;;;3.67;1.50;;;22.00;45.00;;;;;;5093501;28;20044;-30
2022/05/09 12:17:58;;;;;;;3.97;1.60;;;22.00;44.90;;;;;;5093448;28;20059;-31
2022/05/09 12:20:27;;;;;;;4.20;1.50;;;22.10;44.70;;;;;;5093218;28;20433;-28
2022/05/09 12:23:01;;;;;;;2.47;1.30;;;22.20;44.70;;;;;;5093348;28;20020;-32
2022/05/09 12:25:36;;;;;;;4.88;1.70;;;22.30;44.60;;;;;;5093213;28;20028;-31
2022/05/09 12:28:04;;;;;;;5.65;1.67;;;22.40;44.50;;;;;;5093035;28;20035;-33
2022/05/09 12:30:58;;;;;;;4.72;1.60;;;22.40;44.20;;;;;;5092854;28;20030;-31
2022/05/09 12:33:45;;;;;;;4.28;1.83;;;22.50;44.20;;;;;;5092998;28;20468;-30
2022/05/09 12:36:11;;;;;;;2.95;1.50;;;22.60;43.70;;;;;;5092914;28;20056;-30
2022/05/09 12:38:40;;;;;;;2.85;1.42;;;22.70;43.70;;;;;;5093014;28;20489;-29
2022/05/09 12:41:14;;;;;;;4.15;1.90;;;22.70;43.60;;;;;;5092982;28;20048;-30
2022/05/09 12:43:50;;;;;;;4.50;1.60;;;22.80;43.70;;;;;;5092748;28;20030;-34
2022/05/09 12:46:24;;;;;;;3.45;1.85;;;22.90;43.70;;;;;;5093087;28;20036;-33
2022/05/09 12:48:51;;;;;;;3.75;1.58;;;22.90;43.70;;;;;;5092795;28;20099;-29
2022/05/09 12:51:18;;;;;;;3.80;1.75;;;22.90;43.60;;;;;;5092937;28;20028;-30
2022/05/09 12:53:45;;;;;;;5.82;1.90;;;23.00;43.50;;;;;;5092702;28;20032;-29
2022/05/09 12:56:21;;;;;;;3.28;1.80;;;23.00;43.20;;;;;;5092653;28;20028;-30
2022/05/09 12:58:59;;;;;;;4.07;1.85;;;23.10;43.30;;;;;;5094543;28;20052;-30
2022/05/09 13:01:27;;;;;;;2.65;1.42;;;23.20;43.40;;;;;;5097021;28;20020;-28
2022/05/09 13:03:59;;;;;;;3.80;1.40;;;23.30;43.40;;;;;;5096755;28;20049;-33
2022/05/09 13:06:29;;;;;;;4.93;1.70;;;23.40;43.30;;;;;;5096833;28;20024;-30
2022/05/09 13:08:55;;;;;;;4.60;2.22;;;23.50;43.10;;;;;;5096739;28;20499;-36
2022/05/09 13:11:26;;;;;;;4.93;1.92;;;23.60;42.70;;;;;;5096476;28;20024;-32
2022/05/09 13:14:11;;;;;;;3.90;1.80;;;23.70;42.50;;;;;;5096780;28;20328;-29
2022/05/09 13:16:40;;;;;;;2.72;1.50;;;23.70;42.30;;;;;;5096737;28;20021;-31
2022/05/09 13:19:13;;;;;;;4.00;1.90;;;23.70;42.50;;;;;;5096725;28;20026;-31
2022/05/09 13:21:40;;;;;;;4.10;1.83;;;23.80;42.50;;;;;;5096686;28;20020;-34
2022/05/09 13:24:13;;;;;;;2.38;1.40;;;23.90;42.30;;;;;;5095143;28;20020;-33
2022/05/09 13:26:48;;;;;;;3.85;2.10;;;24.10;42.20;;;;;;5096500;28;20513;-33